KCFV/CFV METAR and TAF weather

Enter ICAO airport designator
Station Type Date Time Source
KCFV METAR 2021/09/25 12:52 UTC NOAA

KCFV 251252Z AUTO 04004KT 10SM CLR 11/09 A3016 RMK AO2 SLP212 T01110094


Station Type Date Time Source
KCFV Decoded METAR 2021/09/25 12:52 UTC NOAA

COFFEYVILLE MUNICIPAL AIRPORT , KS, United States (KCFV) 37-05N 95-34W 225M
Sep 25, 2021 - 08:52 AM EDT / 2021.09.25 1252 UTC
Wind: from the NE (040 degrees) at 5 MPH (4 KT):0
Visibility: 10 mile(s):0
Sky conditions: clear
Temperature: 52.0 F (11.1 C)
Dew Point: 48.9 F (9.4 C)
Relative Humidity: 89%
Pressure (altimeter): 30.16 in. Hg (1021 hPa)
ob: KCFV 251252Z AUTO 04004KT 10SM CLR 11/09 A3016 RMK AO2 SLP212 T01110094
cycle: 13

Station Type Date Time Source
KCFV TAF UTC NOAA

Error!

Example: see airport list